sensor_id;sensor_type;location;lat;lon;timestamp;temperature;humidity
17425;DHT22;8830;50.978;5.058;2022-10-18T00:01:14;16.50;99.90
17425;DHT22;8830;50.978;5.058;2022-10-18T00:03:41;15.40;99.90
17425;DHT22;8830;50.978;5.058;2022-10-18T00:06:11;15.50;99.90
17425;DHT22;8830;50.978;5.058;2022-10-18T00:08:39;15.50;99.90
17425;DHT22;8830;50.978;5.058;2022-10-18T00:11:06;15.40;99.90
17425;DHT22;8830;50.978;5.058;2022-10-18T00:13:35;15.40;99.90
17425;DHT22;8830;50.978;5.058;2022-10-18T00:16:16;15.40;99.90
17425;DHT22;8830;50.978;5.058;2022-10-18T00:18:44;15.40;99.90
17425;DHT22;8830;50.978;5.058;2022-10-18T00:21:14;15.40;99.90
17425;DHT22;8830;50.978;5.058;2022-10-18T00:23:42;15.50;99.90
17425;DHT22;8830;50.978;5.058;2022-10-18T00:26:11;15.40;99.90
17425;DHT22;8830;50.978;5.058;2022-10-18T00:28:39;15.40;99.90
17425;DHT22;8830;50.978;5.058;2022-10-18T00:31:16;15.40;99.90
17425;DHT22;8830;50.978;5.058;2022-10-18T00:33:45;15.50;99.90
17425;DHT22;8830;50.978;5.058;2022-10-18T00:36:13;15.50;99.90
17425;DHT22;8830;50.978;5.058;2022-10-18T00:38:40;15.50;99.90
17425;DHT22;8830;50.978;5.058;2022-10-18T00:41:09;15.50;99.90
17425;DHT22;8830;50.978;5.058;2022-10-18T00:43:54;15.40;99.90
17425;DHT22;8830;50.978;5.058;2022-10-18T00:46:23;15.40;99.90
17425;DHT22;8830;50.978;5.058;2022-10-18T00:48:52;15.40;99.90
17425;DHT22;8830;50.978;5.058;2022-10-18T00:51:29;15.40;99.90
17425;DHT22;8830;50.978;5.058;2022-10-18T00:53:58;15.40;99.90
17425;DHT22;8830;50.978;5.058;2022-10-18T00:56:25;15.30;99.90
17425;DHT22;8830;50.978;5.058;2022-10-18T00:58:55;15.40;99.90
17425;DHT22;8830;50.978;5.058;2022-10-18T01:01:24;15.30;99.90
17425;DHT22;8830;50.978;5.058;2022-10-18T01:03:52;15.40;99.90
17425;DHT22;8830;50.978;5.058;2022-10-18T01:06:21;15.40;99.90
17425;DHT22;8830;50.978;5.058;2022-10-18T01:09:09;15.40;99.90
17425;DHT22;8830;50.978;5.058;2022-10-18T01:11:58;15.40;99.90
17425;DHT22;8830;50.978;5.058;2022-10-18T01:14:36;15.40;99.90
17425;DHT22;8830;50.978;5.058;2022-10-18T01:17:12;15.40;99.90
17425;DHT22;8830;50.978;5.058;2022-10-18T01:20:00;15.40;99.90
17425;DHT22;8830;50.978;5.058;2022-10-18T01:22:33;15.40;99.90
17425;DHT22;8830;50.978;5.058;2022-10-18T01:25:08;15.40;99.90
17425;DHT22;8830;50.978;5.058;2022-10-18T01:27:45;15.40;99.90
17425;DHT22;8830;50.978;5.058;2022-10-18T01:30:37;15.40;99.90
17425;DHT22;8830;50.978;5.058;2022-10-18T01:33:12;15.50;99.90
17425;DHT22;8830;50.978;5.058;2022-10-18T01:35:43;15.40;99.90
17425;DHT22;8830;50.978;5.058;2022-10-18T01:38:16;15.40;99.90
17425;DHT22;8830;50.978;5.058;2022-10-18T01:40:46;15.60;99.90
17425;DHT22;8830;50.978;5.058;2022-10-18T01:43:17;15.50;99.90
17425;DHT22;8830;50.978;5.058;2022-10-18T01:45:48;15.50;99.90
17425;DHT22;8830;50.978;5.058;2022-10-18T01:48:18;15.50;99.90
17425;DHT22;8830;50.978;5.058;2022-10-18T01:50:46;15.40;99.90
17425;DHT22;8830;50.978;5.058;2022-10-18T01:53:28;15.50;99.90
17425;DHT22;8830;50.978;5.058;2022-10-18T01:56:23;15.50;99.90
17425;DHT22;8830;50.978;5.058;2022-10-18T01:59:01;15.50;99.90
17425;DHT22;8830;50.978;5.058;2022-10-18T02:01:42;15.50;99.90
17425;DHT22;8830;50.978;5.058;2022-10-18T02:04:19;15.50;99.90
17425;DHT22;8830;50.978;5.058;2022-10-18T02:06:52;15.50;99.90
17425;DHT22;8830;50.978;5.058;2022-10-18T02:09:27;15.50;99.90
17425;DHT22;8830;50.978;5.058;2022-10-18T02:11:56;15.50;99.90
17425;DHT22;8830;50.978;5.058;2022-10-18T02:14:24;15.50;99.90
17425;DHT22;8830;50.978;5.058;2022-10-18T02:16:55;15.50;99.90
17425;DHT22;8830;50.978;5.058;2022-10-18T02:19:26;15.50;99.90
17425;DHT22;8830;50.978;5.058;2022-10-18T02:21:57;15.50;99.90
17425;DHT22;8830;50.978;5.058;2022-10-18T02:24:30;15.50;99.90
17425;DHT22;8830;50.978;5.058;2022-10-18T02:27:00;15.50;99.90
17425;DHT22;8830;50.978;5.058;2022-10-18T02:29:27;15.40;99.90
17425;DHT22;8830;50.978;5.058;2022-10-18T02:32:02;15.40;99.90
17425;DHT22;8830;50.978;5.058;2022-10-18T02:34:36;15.40;99.90
17425;DHT22;8830;50.978;5.058;2022-10-18T02:37:04;15.50;99.90
17425;DHT22;8830;50.978;5.058;2022-10-18T02:39:34;15.40;99.90
17425;DHT22;8830;50.978;5.058;2022-10-18T02:42:03;15.50;99.90
17425;DHT22;8830;50.978;5.058;2022-10-18T02:44:33;15.40;99.90
17425;DHT22;8830;50.978;5.058;2022-10-18T02:47:09;15.50;99.90
17425;DHT22;8830;50.978;5.058;2022-10-18T02:49:36;15.50;99.90
17425;DHT22;8830;50.978;5.058;2022-10-18T02:52:03;15.40;99.90
17425;DHT22;8830;50.978;5.058;2022-10-18T02:54:31;15.40;99.90
17425;DHT22;8830;50.978;5.058;2022-10-18T02:56:58;15.40;99.90
17425;DHT22;8830;50.978;5.058;2022-10-18T02:59:27;15.40;99.90
17425;DHT22;8830;50.978;5.058;2022-10-18T03:01:56;15.40;99.90
17425;DHT22;8830;50.978;5.058;2022-10-18T03:04:24;15.40;99.90
17425;DHT22;8830;50.978;5.058;2022-10-18T03:06:53;15.40;99.90
17425;DHT22;8830;50.978;5.058;2022-10-18T03:09:21;15.40;99.90
17425;DHT22;8830;50.978;5.058;2022-10-18T03:11:47;15.40;99.90
17425;DHT22;8830;50.978;5.058;2022-10-18T03:14:20;15.40;99.90
17425;DHT22;8830;50.978;5.058;2022-10-18T03:16:53;15.40;99.90
17425;DHT22;8830;50.978;5.058;2022-10-18T03:19:20;15.40;99.90
17425;DHT22;8830;50.978;5.058;2022-10-18T03:21:48;15.60;99.90
17425;DHT22;8830;50.978;5.058;2022-10-18T03:24:16;15.50;99.90
17425;DHT22;8830;50.978;5.058;2022-10-18T03:26:42;15.50;99.90
17425;DHT22;8830;50.978;5.058;2022-10-18T03:29:10;15.50;99.90
17425;DHT22;8830;50.978;5.058;2022-10-18T03:31:38;15.50;99.90
17425;DHT22;8830;50.978;5.058;2022-10-18T03:34:05;15.60;99.90
17425;DHT22;8830;50.978;5.058;2022-10-18T03:36:33;15.60;99.90
17425;DHT22;8830;50.978;5.058;2022-10-18T03:39:04;15.60;99.90
17425;DHT22;8830;50.978;5.058;2022-10-18T03:41:31;15.60;99.90
17425;DHT22;8830;50.978;5.058;2022-10-18T03:43:59;15.60;99.90
17425;DHT22;8830;50.978;5.058;2022-10-18T03:46:26;15.60;99.90
17425;DHT22;8830;50.978;5.058;2022-10-18T03:48:55;15.60;99.90
17425;DHT22;8830;50.978;5.058;2022-10-18T03:51:22;15.60;99.90
17425;DHT22;8830;50.978;5.058;2022-10-18T03:53:49;15.60;99.90
17425;DHT22;8830;50.978;5.058;2022-10-18T03:56:18;15.60;99.90
17425;DHT22;8830;50.978;5.058;2022-10-18T03:58:46;15.60;99.90
17425;DHT22;8830;50.978;5.058;2022-10-18T04:01:13;15.60;99.90
17425;DHT22;8830;50.978;5.058;2022-10-18T04:03:42;15.60;99.90
17425;DHT22;8830;50.978;5.058;2022-10-18T04:06:09;15.60;99.90
17425;DHT22;8830;50.978;5.058;2022-10-18T04:08:41;15.60;99.90
17425;DHT22;8830;50.978;5.058;2022-10-18T04:11:09;15.60;99.90
17425;DHT22;8830;50.978;5.058;2022-10-18T04:13:38;15.60;99.90
17425;DHT22;8830;50.978;5.058;2022-10-18T04:16:06;15.60;99.90
17425;DHT22;8830;50.978;5.058;2022-10-18T04:18:33;15.60;99.90
17425;DHT22;8830;50.978;5.058;2022-10-18T04:21:01;15.50;99.90
17425;DHT22;8830;50.978;5.058;2022-10-18T04:23:29;15.50;99.90
17425;DHT22;8830;50.978;5.058;2022-10-18T04:25:56;15.50;99.90
17425;DHT22;8830;50.978;5.058;2022-10-18T04:28:23;15.50;99.90
17425;DHT22;8830;50.978;5.058;2022-10-18T04:30:53;15.50;99.90
17425;DHT22;8830;50.978;5.058;2022-10-18T04:33:21;15.50;99.90
17425;DHT22;8830;50.978;5.058;2022-10-18T04:35:51;15.50;99.90
17425;DHT22;8830;50.978;5.058;2022-10-18T04:38:19;15.50;99.90
17425;DHT22;8830;50.978;5.058;2022-10-18T04:40:46;15.50;99.90
17425;DHT22;8830;50.978;5.058;2022-10-18T04:43:15;15.50;99.90
17425;DHT22;8830;50.978;5.058;2022-10-18T04:45:44;15.50;99.90
17425;DHT22;8830;50.978;5.058;2022-10-18T04:48:15;15.50;99.90
17425;DHT22;8830;50.978;5.058;2022-10-18T04:50:47;15.50;99.90
17425;DHT22;8830;50.978;5.058;2022-10-18T04:53:16;15.50;99.90
17425;DHT22;8830;50.978;5.058;2022-10-18T04:55:47;15.50;99.90
17425;DHT22;8830;50.978;5.058;2022-10-18T04:58:14;15.50;99.90
17425;DHT22;8830;50.978;5.058;2022-10-18T05:00:42;15.50;99.90
17425;DHT22;8830;50.978;5.058;2022-10-18T05:03:12;15.50;99.90
17425;DHT22;8830;50.978;5.058;2022-10-18T05:05:41;15.50;99.90
17425;DHT22;8830;50.978;5.058;2022-10-18T05:08:10;15.50;99.90
17425;DHT22;8830;50.978;5.058;2022-10-18T05:10:37;15.50;99.90
17425;DHT22;8830;50.978;5.058;2022-10-18T05:13:04;15.50;99.90
17425;DHT22;8830;50.978;5.058;2022-10-18T05:15:31;15.50;99.90
17425;DHT22;8830;50.978;5.058;2022-10-18T05:18:01;15.60;99.90
17425;DHT22;8830;50.978;5.058;2022-10-18T05:20:28;15.40;99.90
17425;DHT22;8830;50.978;5.058;2022-10-18T05:22:57;15.50;99.90
17425;DHT22;8830;50.978;5.058;2022-10-18T05:25:25;15.50;99.90
17425;DHT22;8830;50.978;5.058;2022-10-18T05:27:53;15.50;99.90
17425;DHT22;8830;50.978;5.058;2022-10-18T05:30:20;15.50;99.90
17425;DHT22;8830;50.978;5.058;2022-10-18T05:32:49;15.50;99.90
17425;DHT22;8830;50.978;5.058;2022-10-18T05:35:16;15.40;99.90
17425;DHT22;8830;50.978;5.058;2022-10-18T05:37:43;15.40;99.90
17425;DHT22;8830;50.978;5.058;2022-10-18T05:40:13;15.40;99.90
17425;DHT22;8830;50.978;5.058;2022-10-18T05:42:41;15.30;99.90
17425;DHT22;8830;50.978;5.058;2022-10-18T05:45:08;15.30;99.90
17425;DHT22;8830;50.978;5.058;2022-10-18T05:47:37;15.40;99.90
17425;DHT22;8830;50.978;5.058;2022-10-18T05:50:04;15.30;99.90
17425;DHT22;8830;50.978;5.058;2022-10-18T05:52:31;15.40;99.90
17425;DHT22;8830;50.978;5.058;2022-10-18T05:54:58;15.30;99.90
17425;DHT22;8830;50.978;5.058;2022-10-18T05:57:27;15.30;99.90
17425;DHT22;8830;50.978;5.058;2022-10-18T05:59:55;15.30;99.90
17425;DHT22;8830;50.978;5.058;2022-10-18T06:02:22;15.30;99.90
17425;DHT22;8830;50.978;5.058;2022-10-18T06:04:50;15.30;99.90
17425;DHT22;8830;50.978;5.058;2022-10-18T06:07:18;15.20;99.90
17425;DHT22;8830;50.978;5.058;2022-10-18T06:10:09;15.30;99.90
17425;DHT22;8830;50.978;5.058;2022-10-18T06:13:29;15.30;99.90
17425;DHT22;8830;50.978;5.058;2022-10-18T06:16:10;15.30;99.90
17425;DHT22;8830;50.978;5.058;2022-10-18T06:19:03;15.30;99.90
17425;DHT22;8830;50.978;5.058;2022-10-18T06:22:09;15.30;99.90
17425;DHT22;8830;50.978;5.058;2022-10-18T06:25:04;15.30;99.90
17425;DHT22;8830;50.978;5.058;2022-10-18T06:27:32;15.30;99.90
17425;DHT22;8830;50.978;5.058;2022-10-18T06:30:01;15.30;99.90
17425;DHT22;8830;50.978;5.058;2022-10-18T06:32:32;15.30;99.90
17425;DHT22;8830;50.978;5.058;2022-10-18T06:35:00;15.20;99.90
17425;DHT22;8830;50.978;5.058;2022-10-18T06:37:28;15.20;99.90
17425;DHT22;8830;50.978;5.058;2022-10-18T06:39:55;15.10;99.90
17425;DHT22;8830;50.978;5.058;2022-10-18T06:42:24;15.10;99.90
17425;DHT22;8830;50.978;5.058;2022-10-18T06:44:51;15.20;99.90
17425;DHT22;8830;50.978;5.058;2022-10-18T06:47:19;15.30;99.90
17425;DHT22;8830;50.978;5.058;2022-10-18T06:49:49;15.20;99.90
17425;DHT22;8830;50.978;5.058;2022-10-18T06:52:18;15.20;99.90
17425;DHT22;8830;50.978;5.058;2022-10-18T06:54:50;15.30;99.90
17425;DHT22;8830;50.978;5.058;2022-10-18T06:57:20;15.30;99.90
17425;DHT22;8830;50.978;5.058;2022-10-18T06:59:47;15.30;99.90
17425;DHT22;8830;50.978;5.058;2022-10-18T07:02:15;15.30;99.90
17425;DHT22;8830;50.978;5.058;2022-10-18T07:04:44;15.40;99.90
17425;DHT22;8830;50.978;5.058;2022-10-18T07:07:10;15.50;99.90
17425;DHT22;8830;50.978;5.058;2022-10-18T07:09:37;15.50;99.90
17425;DHT22;8830;50.978;5.058;2022-10-18T07:12:05;15.60;99.90
17425;DHT22;8830;50.978;5.058;2022-10-18T07:14:32;15.60;99.90
17425;DHT22;8830;50.978;5.058;2022-10-18T07:16:59;15.70;99.90
17425;DHT22;8830;50.978;5.058;2022-10-18T07:19:26;15.70;99.90
17425;DHT22;8830;50.978;5.058;2022-10-18T07:21:54;15.80;99.90
17425;DHT22;8830;50.978;5.058;2022-10-18T07:24:21;15.90;99.90
17425;DHT22;8830;50.978;5.058;2022-10-18T07:26:48;16.00;99.90
17425;DHT22;8830;50.978;5.058;2022-10-18T07:29:15;16.10;99.90
17425;DHT22;8830;50.978;5.058;2022-10-18T07:31:42;16.20;99.90
17425;DHT22;8830;50.978;5.058;2022-10-18T07:34:11;16.40;99.90
17425;DHT22;8830;50.978;5.058;2022-10-18T07:36:39;16.50;99.90
17425;DHT22;8830;50.978;5.058;2022-10-18T07:39:08;16.60;99.90
17425;DHT22;8830;50.978;5.058;2022-10-18T07:41:35;16.70;99.90
17425;DHT22;8830;50.978;5.058;2022-10-18T07:44:03;16.80;99.90
17425;DHT22;8830;50.978;5.058;2022-10-18T07:46:30;16.80;99.90
17425;DHT22;8830;50.978;5.058;2022-10-18T07:48:57;16.80;99.90
17425;DHT22;8830;50.978;5.058;2022-10-18T07:51:25;16.90;99.90
17425;DHT22;8830;50.978;5.058;2022-10-18T07:53:53;17.10;99.90
17425;DHT22;8830;50.978;5.058;2022-10-18T07:56:21;17.20;99.90
17425;DHT22;8830;50.978;5.058;2022-10-18T07:58:50;17.30;99.90
17425;DHT22;8830;50.978;5.058;2022-10-18T08:01:18;17.40;99.90
17425;DHT22;8830;50.978;5.058;2022-10-18T08:03:46;17.40;99.90
17425;DHT22;8830;50.978;5.058;2022-10-18T08:06:14;17.50;99.90
17425;DHT22;8830;50.978;5.058;2022-10-18T08:08:43;17.70;99.90
17425;DHT22;8830;50.978;5.058;2022-10-18T08:11:13;17.70;99.90
17425;DHT22;8830;50.978;5.058;2022-10-18T08:13:42;17.70;99.90
17425;DHT22;8830;50.978;5.058;2022-10-18T08:16:12;17.60;99.90
17425;DHT22;8830;50.978;5.058;2022-10-18T08:18:40;17.70;99.90
17425;DHT22;8830;50.978;5.058;2022-10-18T08:21:10;17.70;99.90
17425;DHT22;8830;50.978;5.058;2022-10-18T08:23:41;17.80;99.90
17425;DHT22;8830;50.978;5.058;2022-10-18T08:26:16;17.80;99.90
17425;DHT22;8830;50.978;5.058;2022-10-18T08:28:47;17.90;99.90
17425;DHT22;8830;50.978;5.058;2022-10-18T08:31:17;18.00;99.90
17425;DHT22;8830;50.978;5.058;2022-10-18T08:33:46;18.10;99.90
17425;DHT22;8830;50.978;5.058;2022-10-18T08:36:16;18.00;99.90
17425;DHT22;8830;50.978;5.058;2022-10-18T08:38:44;18.10;99.90
17425;DHT22;8830;50.978;5.058;2022-10-18T08:44:08;18.20;99.90
17425;DHT22;8830;50.978;5.058;2022-10-18T08:46:43;18.30;99.90
17425;DHT22;8830;50.978;5.058;2022-10-18T08:49:21;18.40;99.90
17425;DHT22;8830;50.978;5.058;2022-10-18T08:51:49;18.40;99.90
17425;DHT22;8830;50.978;5.058;2022-10-18T08:54:23;18.30;99.90
17425;DHT22;8830;50.978;5.058;2022-10-18T08:56:58;18.30;99.90
17425;DHT22;8830;50.978;5.058;2022-10-18T08:59:31;18.30;99.90
17425;DHT22;8830;50.978;5.058;2022-10-18T09:02:06;18.30;99.90
17425;DHT22;8830;50.978;5.058;2022-10-18T09:04:45;18.30;99.90
17425;DHT22;8830;50.978;5.058;2022-10-18T09:07:35;18.30;99.90
17425;DHT22;8830;50.978;5.058;2022-10-18T09:10:18;18.20;99.90
17425;DHT22;8830;50.978;5.058;2022-10-18T09:12:58;18.20;99.90
17425;DHT22;8830;50.978;5.058;2022-10-18T09:15:34;18.30;99.90
17425;DHT22;8830;50.978;5.058;2022-10-18T09:18:18;18.40;99.90
17425;DHT22;8830;50.978;5.058;2022-10-18T09:20:55;18.40;99.90
17425;DHT22;8830;50.978;5.058;2022-10-18T09:23:30;18.40;99.90
17425;DHT22;8830;50.978;5.058;2022-10-18T09:26:09;18.40;99.90
17425;DHT22;8830;50.978;5.058;2022-10-18T09:28:45;18.40;99.90
17425;DHT22;8830;50.978;5.058;2022-10-18T09:31:21;18.40;99.90
17425;DHT22;8830;50.978;5.058;2022-10-18T09:33:56;18.30;99.90
17425;DHT22;8830;50.978;5.058;2022-10-18T09:36:30;18.30;99.90
17425;DHT22;8830;50.978;5.058;2022-10-18T09:39:02;18.50;99.90
17425;DHT22;8830;50.978;5.058;2022-10-18T09:41:36;18.80;99.90
17425;DHT22;8830;50.978;5.058;2022-10-18T09:44:13;19.00;99.90
17425;DHT22;8830;50.978;5.058;2022-10-18T09:46:47;19.20;99.90
17425;DHT22;8830;50.978;5.058;2022-10-18T09:49:20;18.90;99.90
17425;DHT22;8830;50.978;5.058;2022-10-18T09:51:52;18.70;99.90
17425;DHT22;8830;50.978;5.058;2022-10-18T09:54:30;18.70;99.90
17425;DHT22;8830;50.978;5.058;2022-10-18T09:57:03;18.80;99.90
17425;DHT22;8830;50.978;5.058;2022-10-18T09:59:37;18.70;99.90
17425;DHT22;8830;50.978;5.058;2022-10-18T10:02:12;18.70;99.90
17425;DHT22;8830;50.978;5.058;2022-10-18T10:04:43;18.50;99.90
17425;DHT22;8830;50.978;5.058;2022-10-18T10:07:13;18.40;99.90
17425;DHT22;8830;50.978;5.058;2022-10-18T10:09:45;18.40;99.90
17425;DHT22;8830;50.978;5.058;2022-10-18T10:12:26;18.50;99.90
17425;DHT22;8830;50.978;5.058;2022-10-18T10:15:06;18.60;99.90
17425;DHT22;8830;50.978;5.058;2022-10-18T10:17:36;18.70;99.90
17425;DHT22;8830;50.978;5.058;2022-10-18T10:20:14;18.90;99.90
17425;DHT22;8830;50.978;5.058;2022-10-18T10:22:45;18.80;99.90
17425;DHT22;8830;50.978;5.058;2022-10-18T10:25:20;18.70;99.90
17425;DHT22;8830;50.978;5.058;2022-10-18T10:27:50;18.70;99.90
17425;DHT22;8830;50.978;5.058;2022-10-18T10:30:23;18.70;99.90
17425;DHT22;8830;50.978;5.058;2022-10-18T10:32:56;18.70;99.90
17425;DHT22;8830;50.978;5.058;2022-10-18T10:35:29;18.70;99.90
17425;DHT22;8830;50.978;5.058;2022-10-18T10:37:57;18.70;99.90
17425;DHT22;8830;50.978;5.058;2022-10-18T10:40:25;18.80;99.90
17425;DHT22;8830;50.978;5.058;2022-10-18T10:45:54;18.80;99.90
17425;DHT22;8830;50.978;5.058;2022-10-18T10:48:23;18.80;99.90
17425;DHT22;8830;50.978;5.058;2022-10-18T10:50:55;18.80;99.90
17425;DHT22;8830;50.978;5.058;2022-10-18T10:53:42;18.80;99.90
17425;DHT22;8830;50.978;5.058;2022-10-18T10:56:24;18.90;99.90
17425;DHT22;8830;50.978;5.058;2022-10-18T10:58:53;18.80;99.90
17425;DHT22;8830;50.978;5.058;2022-10-18T11:01:31;18.90;99.90
17425;DHT22;8830;50.978;5.058;2022-10-18T11:04:02;19.00;99.90
17425;DHT22;8830;50.978;5.058;2022-10-18T11:06:52;19.00;99.90
17425;DHT22;8830;50.978;5.058;2022-10-18T11:09:55;19.10;99.90
17425;DHT22;8830;50.978;5.058;2022-10-18T11:12:27;19.30;99.90
17425;DHT22;8830;50.978;5.058;2022-10-18T11:15:09;19.30;99.90
17425;DHT22;8830;50.978;5.058;2022-10-18T11:17:43;19.30;99.90
17425;DHT22;8830;50.978;5.058;2022-10-18T11:20:24;19.30;99.90
17425;DHT22;8830;50.978;5.058;2022-10-18T11:23:12;19.30;99.90
17425;DHT22;8830;50.978;5.058;2022-10-18T11:25:52;19.30;99.90
17425;DHT22;8830;50.978;5.058;2022-10-18T11:28:37;19.30;99.90
17425;DHT22;8830;50.978;5.058;2022-10-18T11:31:13;19.30;99.90
17425;DHT22;8830;50.978;5.058;2022-10-18T11:33:56;19.30;99.90
17425;DHT22;8830;50.978;5.058;2022-10-18T11:36:37;19.30;99.90
17425;DHT22;8830;50.978;5.058;2022-10-18T11:39:17;19.30;99.90
17425;DHT22;8830;50.978;5.058;2022-10-18T11:41:49;19.40;99.90
17425;DHT22;8830;50.978;5.058;2022-10-18T11:44:25;19.30;99.90
17425;DHT22;8830;50.978;5.058;2022-10-18T11:47:01;19.30;99.90
17425;DHT22;8830;50.978;5.058;2022-10-18T11:49:43;19.40;99.90
17425;DHT22;8830;50.978;5.058;2022-10-18T11:52:22;19.40;99.90
17425;DHT22;8830;50.978;5.058;2022-10-18T11:55:04;19.40;99.90
17425;DHT22;8830;50.978;5.058;2022-10-18T11:57:48;19.50;99.90
17425;DHT22;8830;50.978;5.058;2022-10-18T12:00:24;19.60;99.90
17425;DHT22;8830;50.978;5.058;2022-10-18T12:03:23;19.70;99.90
17425;DHT22;8830;50.978;5.058;2022-10-18T12:05:55;19.80;99.90
17425;DHT22;8830;50.978;5.058;2022-10-18T12:08:30;19.90;99.90
17425;DHT22;8830;50.978;5.058;2022-10-18T12:11:07;19.80;99.90
17425;DHT22;8830;50.978;5.058;2022-10-18T12:13:42;19.50;99.90
17425;DHT22;8830;50.978;5.058;2022-10-18T12:16:15;19.40;99.90
17425;DHT22;8830;50.978;5.058;2022-10-18T12:18:51;19.40;99.90
17425;DHT22;8830;50.978;5.058;2022-10-18T12:21:22;19.30;99.90
17425;DHT22;8830;50.978;5.058;2022-10-18T12:23:57;19.40;99.90
17425;DHT22;8830;50.978;5.058;2022-10-18T12:26:28;19.30;99.90
17425;DHT22;8830;50.978;5.058;2022-10-18T12:29:09;19.30;99.90
17425;DHT22;8830;50.978;5.058;2022-10-18T12:31:44;19.50;99.90
17425;DHT22;8830;50.978;5.058;2022-10-18T12:34:26;19.50;99.90
17425;DHT22;8830;50.978;5.058;2022-10-18T12:39:57;19.70;99.90
17425;DHT22;8830;50.978;5.058;2022-10-18T12:42:28;19.70;99.90
17425;DHT22;8830;50.978;5.058;2022-10-18T12:45:01;19.60;99.90
17425;DHT22;8830;50.978;5.058;2022-10-18T12:47:32;19.60;99.90
17425;DHT22;8830;50.978;5.058;2022-10-18T12:50:04;19.60;99.90
17425;DHT22;8830;50.978;5.058;2022-10-18T12:52:33;19.60;99.90
17425;DHT22;8830;50.978;5.058;2022-10-18T12:55:28;19.70;99.90
17425;DHT22;8830;50.978;5.058;2022-10-18T12:58:24;19.80;99.90
17425;DHT22;8830;50.978;5.058;2022-10-18T13:00:54;19.80;99.90
17425;DHT22;8830;50.978;5.058;2022-10-18T13:03:37;19.90;99.90
17425;DHT22;8830;50.978;5.058;2022-10-18T13:06:07;19.90;99.90
17425;DHT22;8830;50.978;5.058;2022-10-18T13:08:39;19.90;99.90
17425;DHT22;8830;50.978;5.058;2022-10-18T13:11:40;19.90;99.90
17425;DHT22;8830;50.978;5.058;2022-10-18T13:17:34;19.90;99.90
17425;DHT22;8830;50.978;5.058;2022-10-18T13:20:17;19.90;99.90
17425;DHT22;8830;50.978;5.058;2022-10-18T13:23:00;19.70;99.90
17425;DHT22;8830;50.978;5.058;2022-10-18T13:25:33;19.70;99.90
17425;DHT22;8830;50.978;5.058;2022-10-18T13:28:20;19.80;99.90
17425;DHT22;8830;50.978;5.058;2022-10-18T13:30:53;19.80;99.90
17425;DHT22;8830;50.978;5.058;2022-10-18T13:33:33;19.60;99.90
17425;DHT22;8830;50.978;5.058;2022-10-18T13:36:20;19.70;99.90
17425;DHT22;8830;50.978;5.058;2022-10-18T13:39:01;19.70;99.90
17425;DHT22;8830;50.978;5.058;2022-10-18T13:44:27;19.90;99.90
17425;DHT22;8830;50.978;5.058;2022-10-18T13:47:34;20.00;99.90
17425;DHT22;8830;50.978;5.058;2022-10-18T13:50:29;20.00;99.90
17425;DHT22;8830;50.978;5.058;2022-10-18T13:59:19;20.00;99.90
17425;DHT22;8830;50.978;5.058;2022-10-18T14:02:08;19.90;99.90
17425;DHT22;8830;50.978;5.058;2022-10-18T14:07:44;19.80;99.90
17425;DHT22;8830;50.978;5.058;2022-10-18T14:10:21;19.80;99.90
17425;DHT22;8830;50.978;5.058;2022-10-18T14:13:04;19.80;99.90
17425;DHT22;8830;50.978;5.058;2022-10-18T14:15:38;19.80;99.90
17425;DHT22;8830;50.978;5.058;2022-10-18T14:18:14;19.80;99.90
17425;DHT22;8830;50.978;5.058;2022-10-18T14:20:43;19.70;99.90
17425;DHT22;8830;50.978;5.058;2022-10-18T14:23:15;19.70;99.90
17425;DHT22;8830;50.978;5.058;2022-10-18T14:25:43;19.70;99.90
17425;DHT22;8830;50.978;5.058;2022-10-18T14:28:13;19.70;99.90
17425;DHT22;8830;50.978;5.058;2022-10-18T14:30:51;19.60;99.90
17425;DHT22;8830;50.978;5.058;2022-10-18T14:33:32;19.70;99.90
17425;DHT22;8830;50.978;5.058;2022-10-18T14:36:04;19.70;99.90
17425;DHT22;8830;50.978;5.058;2022-10-18T14:38:33;19.70;99.90
17425;DHT22;8830;50.978;5.058;2022-10-18T14:41:10;19.70;99.90
17425;DHT22;8830;50.978;5.058;2022-10-18T14:43:39;19.70;99.90
17425;DHT22;8830;50.978;5.058;2022-10-18T14:46:17;19.60;99.90
17425;DHT22;8830;50.978;5.058;2022-10-18T14:49:03;19.60;99.90
17425;DHT22;8830;50.978;5.058;2022-10-18T14:51:34;19.50;99.90
17425;DHT22;8830;50.978;5.058;2022-10-18T14:54:02;19.50;99.90
17425;DHT22;8830;50.978;5.058;2022-10-18T14:56:32;19.50;99.90
17425;DHT22;8830;50.978;5.058;2022-10-18T14:59:04;19.50;99.90
17425;DHT22;8830;50.978;5.058;2022-10-18T15:01:36;19.60;99.90
17425;DHT22;8830;50.978;5.058;2022-10-18T15:04:08;19.50;99.90
17425;DHT22;8830;50.978;5.058;2022-10-18T15:06:41;19.40;99.90
17425;DHT22;8830;50.978;5.058;2022-10-18T15:09:09;19.30;99.90
17425;DHT22;8830;50.978;5.058;2022-10-18T15:11:39;19.30;99.90
17425;DHT22;8830;50.978;5.058;2022-10-18T15:14:13;19.30;99.90
17425;DHT22;8830;50.978;5.058;2022-10-18T15:16:42;19.20;99.90
17425;DHT22;8830;50.978;5.058;2022-10-18T15:19:27;19.20;99.90
17425;DHT22;8830;50.978;5.058;2022-10-18T15:21:57;19.10;99.90
17425;DHT22;8830;50.978;5.058;2022-10-18T15:24:30;19.10;99.90
17425;DHT22;8830;50.978;5.058;2022-10-18T15:27:01;19.10;99.90
17425;DHT22;8830;50.978;5.058;2022-10-18T15:29:33;19.00;99.90
17425;DHT22;8830;50.978;5.058;2022-10-18T15:32:14;19.00;99.90
17425;DHT22;8830;50.978;5.058;2022-10-18T15:34:44;18.90;99.90
17425;DHT22;8830;50.978;5.058;2022-10-18T15:37:16;18.90;99.90
17425;DHT22;8830;50.978;5.058;2022-10-18T15:39:44;18.80;99.90
17425;DHT22;8830;50.978;5.058;2022-10-18T15:42:36;18.80;99.90
17425;DHT22;8830;50.978;5.058;2022-10-18T15:45:26;18.70;99.90
17425;DHT22;8830;50.978;5.058;2022-10-18T15:48:01;18.60;99.90
17425;DHT22;8830;50.978;5.058;2022-10-18T15:50:47;18.60;99.90
17425;DHT22;8830;50.978;5.058;2022-10-18T15:53:40;18.50;99.90
17425;DHT22;8830;50.978;5.058;2022-10-18T15:56:11;18.40;99.90
17425;DHT22;8830;50.978;5.058;2022-10-18T15:58:40;18.40;99.90
17425;DHT22;8830;50.978;5.058;2022-10-18T16:01:14;18.30;99.90
17425;DHT22;8830;50.978;5.058;2022-10-18T16:03:45;18.20;99.90
17425;DHT22;8830;50.978;5.058;2022-10-18T16:06:15;18.20;99.90
17425;DHT22;8830;50.978;5.058;2022-10-18T16:08:50;18.10;99.90
17425;DHT22;8830;50.978;5.058;2022-10-18T16:11:26;18.00;99.90
17425;DHT22;8830;50.978;5.058;2022-10-18T16:13:55;17.90;99.90
17425;DHT22;8830;50.978;5.058;2022-10-18T16:16:29;17.90;99.90
17425;DHT22;8830;50.978;5.058;2022-10-18T16:19:00;17.80;99.90
17425;DHT22;8830;50.978;5.058;2022-10-18T16:21:33;17.70;99.90
17425;DHT22;8830;50.978;5.058;2022-10-18T16:24:01;17.60;99.90
17425;DHT22;8830;50.978;5.058;2022-10-18T16:26:31;17.60;99.90
17425;DHT22;8830;50.978;5.058;2022-10-18T16:29:01;17.40;99.90
17425;DHT22;8830;50.978;5.058;2022-10-18T16:31:32;17.40;99.90
17425;DHT22;8830;50.978;5.058;2022-10-18T16:34:04;17.20;99.90
17425;DHT22;8830;50.978;5.058;2022-10-18T16:36:36;17.10;99.90
17425;DHT22;8830;50.978;5.058;2022-10-18T16:39:06;17.00;99.90
17425;DHT22;8830;50.978;5.058;2022-10-18T16:41:34;17.00;99.90
17425;DHT22;8830;50.978;5.058;2022-10-18T16:44:02;16.80;99.90
17425;DHT22;8830;50.978;5.058;2022-10-18T16:46:31;16.80;99.90